Time;durP1;ratioP1;P1;durP2;ratioP2;P2;SDS_P1;SDS_P2;PMS_P1;PMS_P2;Temp;Humidity;BMP_temperature;BMP_pressure;BME280_temperature;BME280_humidity;BME280_pressure;Samples;Min_cycle;Max_cycle;Signal;HPM_P1;HPM_P2
2021/12/05 00:21:59;;;;;;;37.78;20.38;;;;;;;7.27;75.46;100355.91;5076506;28;20378;-79
2021/12/05 00:24:28;;;;;;;38.17;20.20;;;;;;;7.07;75.06;100337.75;5076348;28;20466;-78
2021/12/05 00:27:02;;;;;;;50.10;19.67;;;;;;;7.17;74.53;100356.66;5076023;28;20133;-80
2021/12/05 00:42:57;;;;;;;61.40;33.13;;;;;;;7.04;75.15;100365.56;5075569;28;20032;-78
2021/12/05 00:59:05;;;;;;;37.17;24.08;;;;;;;7.07;76.08;100353.78;5075339;28;20028;-79
2021/12/05 01:14:52;;;;;;;58.35;35.40;;;;;;;7.07;75.62;100369.84;5074999;28;20047;-79
2021/12/05 01:17:25;;;;;;;53.42;33.65;;;;;;;7.14;75.57;100381.81;5074499;28;20025;-79
2021/12/05 01:19:53;;;;;;;53.15;29.73;;;;;;;7.08;76.06;100356.38;5074689;28;20059;-79
2021/12/05 01:22:20;;;;;;;51.22;29.58;;;;;;;7.25;76.06;100373.88;5090302;28;20040;-79
2021/12/05 01:30:09;;;;;;;46.00;26.70;;;;;;;7.46;76.24;100358.94;5074807;28;20024;-78
2021/12/05 01:35:34;;;;;;;41.20;25.40;;;;;;;7.61;76.11;100349.78;5074667;28;20031;-78
2021/12/05 01:40:43;;;;;;;45.28;24.40;;;;;;;7.78;75.90;100347.69;5057137;28;20163;-79
2021/12/05 01:43:56;;;;;;;40.53;22.13;;;;;;;7.81;75.48;100342.13;5074935;28;20024;-77
2021/12/05 01:49:22;;;;;;;47.20;27.55;;;;;;;7.86;75.52;100345.31;5076739;28;20043;-77
2021/12/05 02:32:14;;;;;;;38.63;21.77;;;;;;;8.74;75.64;100332.19;5075191;28;20043;-78
2021/12/05 02:42:23;;;;;;;46.20;23.17;;;;;;;8.99;76.42;100328.41;5073572;28;20123;-78
2021/12/05 02:44:49;;;;;;;44.95;25.15;;;;;;;8.90;76.08;100306.88;5073330;28;20032;-78
2021/12/05 02:47:19;;;;;;;63.25;26.67;;;;;;;9.03;76.29;100321.84;5072903;28;20031;-78
2021/12/05 02:49:48;;;;;;;50.75;24.48;;;;;;;9.05;76.24;100302.97;5072874;28;20466;-79
2021/12/05 02:52:25;;;;;;;34.42;21.60;;;;;;;9.12;76.20;100304.16;5072925;28;20064;-78
2021/12/05 02:54:56;;;;;;;35.65;20.85;;;;;;;9.23;76.23;100322.94;5073690;28;20024;-76
2021/12/05 02:58:13;;;;;;;31.77;19.35;;;;;;;9.26;76.33;100323.53;5073120;28;20025;-77
2021/12/05 03:00:20;;;;;;;31.70;19.50;;;;;;;9.32;76.07;100327.56;5069288;28;20051;-76
2021/12/05 03:02:48;;;;;;;27.20;18.67;;;;;;;9.37;75.45;100330.72;5071897;28;20024;-78
2021/12/05 03:05:19;;;;;;;31.08;19.67;;;;;;;9.32;75.47;100322.19;5072590;28;20090;-78
2021/12/05 03:07:47;;;;;;;28.30;19.55;;;;;;;9.39;75.73;100328.75;5073148;28;20056;-78
2021/12/05 03:10:16;;;;;;;40.95;22.23;;;;;;;9.50;75.90;100330.59;5072988;28;20107;-77
2021/12/05 03:12:43;;;;;;;46.28;22.50;;;;;;;9.49;75.53;100329.72;5072883;28;20033;-77
2021/12/05 03:15:12;;;;;;;35.53;20.83;;;;;;;9.51;75.33;100327.75;5054243;28;20116;-77
2021/12/05 03:17:37;;;;;;;38.13;22.77;;;;;;;9.43;75.76;100311.44;5072305;28;20029;-77
2021/12/05 03:20:05;;;;;;;41.95;23.90;;;;;;;9.54;75.60;100322.13;5054340;28;20044;-78
2021/12/05 03:22:31;;;;;;;44.65;23.30;;;;;;;9.48;75.42;100317.28;5072520;28;20450;-77
2021/12/05 03:24:57;;;;;;;36.65;21.30;;;;;;;9.55;75.38;100310.44;5072422;28;20055;-78
2021/12/05 03:27:22;;;;;;;36.15;22.02;;;;;;;9.65;76.13;100324.81;5072893;28;20020;-78
2021/12/05 03:29:48;;;;;;;39.28;21.80;;;;;;;9.69;76.00;100320.88;5076152;28;20024;-78
2021/12/05 03:32:14;;;;;;;41.42;21.45;;;;;;;9.67;75.82;100301.34;5058280;28;20036;-78
2021/12/05 03:34:39;;;;;;;42.53;24.27;;;;;;;9.74;75.66;100313.31;5076550;28;20115;-78
2021/12/05 03:37:06;;;;;;;40.67;23.02;;;;;;;9.76;75.88;100314.03;5076008;28;20037;-77
2021/12/05 03:39:32;;;;;;;36.15;21.90;;;;;;;9.72;75.80;100291.09;5076722;28;20398;-77
2021/12/05 03:41:58;;;;;;;38.75;22.65;;;;;;;9.81;75.70;100303.75;5076102;28;20028;-78
2021/12/05 03:44:27;;;;;;;33.83;22.17;;;;;;;9.84;75.94;100298.16;5076045;28;20028;-78
2021/12/05 03:46:55;;;;;;;31.48;20.98;;;;;;;9.80;76.02;100285.94;5076168;28;20029;-78
2021/12/05 03:49:22;;;;;;;35.28;23.70;;;;;;;9.87;75.99;100296.16;5076154;28;20028;-78
2021/12/05 03:52:13;;;;;;;35.42;21.05;;;;;;;9.71;75.87;100281.34;5076674;28;20444;-76
2021/12/05 03:54:40;;;;;;;35.63;22.58;;;;;;;9.80;75.67;100296.69;5075341;28;20044;-78
2021/12/05 03:57:06;;;;;;;42.08;22.88;;;;;;;9.80;75.78;100302.06;5076440;28;20028;-78
2021/12/05 03:59:32;;;;;;;35.90;21.75;;;;;;;9.83;76.08;100295.56;5076043;28;20029;-77
2021/12/05 04:02:01;;;;;;;37.83;23.08;;;;;;;9.84;76.54;100299.97;5076739;28;20102;-78
2021/12/05 04:04:27;;;;;;;38.75;23.13;;;;;;;9.71;76.51;100275.97;5076358;28;20032;-78
2021/12/05 04:06:53;;;;;;;38.38;23.73;;;;;;;9.81;76.86;100298.38;5071380;28;20032;-78
2021/12/05 04:09:19;;;;;;;38.17;24.05;;;;;;;9.82;76.60;100300.09;5038705;28;20068;-77
2021/12/05 04:11:57;;;;;;;38.63;22.30;;;;;;;9.88;76.71;100306.78;5055368;28;20126;-77
2021/12/05 04:14:25;;;;;;;42.85;23.63;;;;;;;9.89;76.27;100316.53;5055502;28;20029;-78
2021/12/05 04:16:52;;;;;;;58.03;26.60;;;;;;;9.92;76.57;100304.69;5055238;28;20036;-77
2021/12/05 04:19:17;;;;;;;50.28;25.15;;;;;;;9.98;76.17;100309.53;5072746;28;20051;-77
2021/12/05 04:21:43;;;;;;;42.30;25.27;;;;;;;9.98;76.14;100306.84;5095941;28;20028;-77
2021/12/05 04:24:10;;;;;;;44.40;23.55;;;;;;;10.03;75.97;100304.66;5095808;28;20016;-78
2021/12/05 04:26:36;;;;;;;41.60;22.00;;;;;;;10.03;75.84;100301.97;5095242;28;20043;-78
2021/12/05 04:29:05;;;;;;;37.97;22.85;;;;;;;10.06;76.01;100312.47;5095238;28;20107;-78
2021/12/05 04:31:31;;;;;;;37.60;20.98;;;;;;;10.09;75.86;100307.66;5095113;28;20024;-78
2021/12/05 04:33:57;;;;;;;37.75;21.50;;;;;;;10.13;75.84;100310.94;5095985;28;20032;-77
2021/12/05 04:36:22;;;;;;;36.58;20.67;;;;;;;10.17;75.66;100313.28;5096713;28;20097;-78
2021/12/05 04:38:48;;;;;;;33.28;19.98;;;;;;;10.19;75.57;100297.88;5095773;28;20028;-78
2021/12/05 04:41:14;;;;;;;34.03;19.48;;;;;;;10.14;75.27;100301.94;5095619;28;20020;-78
2021/12/05 04:43:41;;;;;;;33.92;20.65;;;;;;;10.16;75.47;100300.81;5095656;28;20108;-78
2021/12/05 04:46:10;;;;;;;39.40;21.58;;;;;;;10.17;75.54;100293.63;5095628;28;20466;-78
2021/12/05 04:48:38;;;;;;;34.65;21.33;;;;;;;10.05;75.30;100275.81;5095293;28;20024;-78
2021/12/05 04:51:04;;;;;;;40.55;20.52;;;;;;;10.09;75.19;100286.16;5095842;28;20028;-77
2021/12/05 04:53:30;;;;;;;38.20;20.77;;;;;;;10.10;75.69;100289.69;5095582;28;20028;-78
2021/12/05 04:55:56;;;;;;;44.25;21.05;;;;;;;10.16;75.87;100291.91;5096098;28;20028;-78
2021/12/05 04:58:23;;;;;;;38.15;20.42;;;;;;;10.23;75.71;100287.72;5097191;28;20107;-78
2021/12/05 05:00:50;;;;;;;37.97;20.80;;;;;;;10.27;75.55;100292.69;5088205;28;20031;-78
2021/12/05 05:03:16;;;;;;;35.67;19.90;;;;;;;10.24;75.41;100300.19;5075714;28;20025;-78
2021/12/05 05:05:47;;;;;;;36.08;21.15;;;;;;;10.25;75.80;100291.13;5075460;28;20436;-78
2021/12/05 05:08:14;;;;;;;41.50;22.63;;;;;;;10.29;75.94;100293.44;5074987;28;20063;-78
2021/12/05 05:10:39;;;;;;;37.90;21.65;;;;;;;10.28;75.64;100296.22;5075944;28;20025;-77
2021/12/05 05:13:05;;;;;;;35.53;19.60;;;;;;;10.30;75.28;100296.97;5074491;28;20028;-77
2021/12/05 05:15:31;;;;;;;29.83;17.52;;;;;;;10.34;75.03;100291.19;5074572;28;20032;-77
2021/12/05 05:17:59;;;;;;;36.35;20.45;;;;;;;10.40;75.19;100288.97;5074115;28;20111;-78
2021/12/05 05:20:35;;;;;;;37.80;19.58;;;;;;;10.42;75.52;100289.69;5072432;28;20052;-77
2021/12/05 05:51:22;;;;;;;70.43;41.65;;;;;;;9.59;73.52;100330.69;5073816;28;20477;-77
2021/12/05 05:53:48;;;;;;;73.05;39.40;;;;;;;9.65;74.30;100332.88;5073790;28;20032;-76
2021/12/05 05:56:21;;;;;;;79.78;42.20;;;;;;;9.59;74.70;100322.63;5073601;28;20031;-77
2021/12/05 05:58:57;;;;;;;78.00;48.70;;;;;;;9.71;75.03;100328.81;5073333;28;20024;-78
2021/12/05 06:01:45;;;;;;;103.53;60.72;;;;;;;9.76;75.18;100327.44;5073232;28;20021;-78
2021/12/05 06:04:08;;;;;;;65.82;39.13;;;;;;;9.78;75.56;100325.47;5073682;28;20627;-76
2021/12/05 06:06:34;;;;;;;76.93;39.33;;;;;;;9.65;75.50;100335.56;5073280;28;20051;-78
2021/12/05 06:09:01;;;;;;;77.25;38.60;;;;;;;9.51;75.95;100311.66;5073156;28;20051;-79
2021/12/05 06:11:27;;;;;;;67.30;39.17;;;;;;;9.63;76.04;100321.38;5073248;28;20027;-76
2021/12/05 06:13:53;;;;;;;61.28;37.97;;;;;;;9.75;76.23;100324.91;5073713;28;20024;-77
2021/12/05 06:16:19;;;;;;;63.10;36.47;;;;;;;9.84;76.40;100330.38;5073234;28;20024;-78
2021/12/05 06:18:47;;;;;;;65.72;35.53;;;;;;;9.95;76.21;100323.22;5073269;28;20033;-76
2021/12/05 06:21:14;;;;;;;61.50;33.45;;;;;;;10.02;76.39;100317.22;5073298;28;20043;-78
2021/12/05 06:23:40;;;;;;;55.72;29.83;;;;;;;10.05;76.85;100308.06;5072957;28;20024;-78
2021/12/05 06:26:08;;;;;;;60.83;32.00;;;;;;;10.19;77.19;100318.50;5073443;28;20441;-78
2021/12/05 06:28:39;;;;;;;54.97;30.08;;;;;;;10.24;77.02;100333.25;5072604;28;20028;-76
2021/12/05 06:31:22;;;;;;;55.00;31.52;;;;;;;10.29;77.03;100331.06;5073409;28;20031;-76
2021/12/05 06:47:31;;;;;;;42.30;26.95;;;;;;;10.54;78.00;100345.94;5073139;28;20035;-76
2021/12/05 06:49:57;;;;;;;53.53;25.70;;;;;;;10.64;77.31;100356.78;5072544;28;20119;-76
2021/12/05 06:52:23;;;;;;;72.80;38.75;;;;;;;10.47;76.82;100333.16;5082724;28;20109;-77
2021/12/05 06:54:50;;;;;;;58.95;33.10;;;;;;;10.68;77.44;100342.06;5091984;28;20493;-77
2021/12/05 06:57:16;;;;;;;54.28;34.38;;;;;;;10.74;78.11;100357.66;5074131;28;20028;-76
2021/12/05 06:59:45;;;;;;;69.57;46.40;;;;;;;10.81;78.49;100354.31;5093249;28;20458;-74
2021/12/05 07:02:14;;;;;;;60.80;35.53;;;;;;;10.87;78.96;100356.47;5071804;28;20064;-75
2021/12/05 07:04:51;;;;;;;58.13;33.65;;;;;;;10.99;77.78;100348.31;5072883;28;20500;-76
2021/12/05 07:07:29;;;;;;;48.15;30.65;;;;;;;11.04;77.62;100338.03;5072356;28;20308;-76
2021/12/05 07:09:55;;;;;;;41.95;25.55;;;;;;;11.12;77.35;100351.66;5071987;28;20457;-77
2021/12/05 07:15:06;;;;;;;37.20;23.23;;;;;;;11.19;76.84;100350.13;5072746;28;20044;-80
2021/12/05 07:23:08;;;;;;;24.85;17.30;;;;;;;11.28;76.53;100357.38;5073233;28;20535;-77
2021/12/05 07:25:47;;;;;;;30.02;19.40;;;;;;;11.36;76.60;100360.25;5071822;28;20521;-75
2021/12/05 07:42:05;;;;;;;38.03;18.55;;;;;;;11.55;76.08;100360.31;5072279;28;20443;-77
2021/12/05 07:44:31;;;;;;;27.20;16.60;;;;;;;11.57;75.72;100346.69;5071364;28;20024;-76
2021/12/05 07:46:57;;;;;;;29.33;19.75;;;;;;;11.61;75.32;100343.59;5071595;28;20390;-77
2021/12/05 07:49:23;;;;;;;44.92;19.85;;;;;;;11.74;75.32;100357.66;5071578;28;20025;-78
2021/12/05 07:51:50;;;;;;;29.60;18.48;;;;;;;11.77;74.32;100345.78;5071948;28;20053;-77
2021/12/05 07:54:35;;;;;;;37.92;21.23;;;;;;;11.92;74.78;100353.34;5071662;28;20029;-78
2021/12/05 07:57:23;;;;;;;28.60;18.35;;;;;;;12.00;74.46;100345.38;5071192;28;20438;-77
2021/12/05 08:00:11;;;;;;;36.70;20.08;;;;;;;11.98;74.23;100328.53;5071570;28;20464;-76
2021/12/05 08:16:24;;;;;;;39.30;18.92;;;;;;;12.30;73.43;100314.72;5075337;28;20123;-77
2021/12/05 08:18:50;;;;;;;40.83;20.58;;;;;;;12.34;73.86;100326.94;5095345;28;20339;-77
2021/12/05 08:21:15;;;;;;;52.53;19.55;;;;;;;12.31;73.35;100313.75;5110763;28;20109;-76
2021/12/05 08:23:41;;;;;;;39.40;17.67;;;;;;;12.41;73.60;100321.81;5076955;28;20063;-77
2021/12/05 08:26:10;;;;;;;31.48;18.55;;;;;;;12.35;73.61;100323.22;5095427;28;20066;-76
2021/12/05 09:31:18;;;;;;;23.98;8.80;;;;;;;12.80;74.47;100231.69;5074449;28;20039;-77
2021/12/05 09:39:33;;;;;;;20.83;8.88;;;;;;;12.81;74.98;100233.38;5074162;28;19999;-77
2021/12/05 09:53:35;;;;;;;14.38;6.47;;;;;;;12.89;75.69;100213.75;5093577;28;20181;-76
2021/12/05 10:09:33;;;;;;;18.70;6.82;;;;;;;12.75;75.04;100231.25;5094321;28;20497;-77
2021/12/05 10:15:02;;;;;;;15.52;6.57;;;;;;;12.36;75.52;100179.31;5088773;28;20074;-76
2021/12/05 10:17:52;;;;;;;13.82;6.57;;;;;;;12.60;75.97;100224.66;5072849;28;20029;-76
2021/12/05 10:34:42;;;;;;;20.15;9.70;;;;;;;13.36;76.13;100207.22;5072848;28;20051;-75
2021/12/05 10:37:18;;;;;;;16.23;7.82;;;;;;;13.34;72.74;100203.00;5072328;28;20556;-75
2021/12/05 10:39:45;;;;;;;17.30;7.32;;;;;;;13.45;71.78;100216.28;5072535;28;20027;-75
2021/12/05 10:42:41;;;;;;;10.98;6.25;;;;;;;13.38;70.88;100188.19;5072763;28;20032;-75
2021/12/05 10:45:10;;;;;;;12.02;6.15;;;;;;;13.47;70.08;100207.03;5080019;28;20378;-75
2021/12/05 10:47:41;;;;;;;15.68;5.45;;;;;;;13.32;70.17;100200.47;5091917;28;20015;-76
2021/12/05 10:50:29;;;;;;;14.70;7.32;;;;;;;13.50;70.63;100192.34;5092040;28;20027;-75
2021/12/05 10:53:31;;;;;;;34.30;8.02;;;;;;;13.61;70.04;100197.53;5092358;28;20119;-75
2021/12/05 10:56:15;;;;;;;17.25;8.50;;;;;;;13.70;70.42;100185.78;5092535;28;20428;-75
2021/12/05 10:58:45;;;;;;;15.45;7.90;;;;;;;13.72;69.41;100193.75;5091914;28;20031;-74
2021/12/05 11:01:32;;;;;;;10.80;5.90;;;;;;;13.65;69.04;100201.63;5080276;28;20078;-75
2021/12/05 11:04:03;;;;;;;9.93;6.00;;;;;;;13.68;69.01;100195.06;5071903;28;20102;-75
2021/12/05 11:06:33;;;;;;;12.48;6.32;;;;;;;13.51;69.30;100194.91;5071885;28;20100;-74
2021/12/05 11:09:17;;;;;;;16.58;7.72;;;;;;;13.65;69.49;100188.09;5088736;28;20394;-74
2021/12/05 11:11:46;;;;;;;12.55;8.38;;;;;;;13.66;68.77;100180.84;5102730;28;20112;-75
2021/12/05 11:14:25;;;;;;;13.32;8.43;;;;;;;13.69;69.14;100181.41;5091884;28;20493;-74
2021/12/05 11:17:05;;;;;;;18.25;6.53;;;;;;;13.86;68.79;100180.53;5088822;28;20026;-74
2021/12/05 11:19:40;;;;;;;12.50;7.45;;;;;;;14.08;69.12;100166.50;5090060;28;20022;-76
2021/12/05 11:22:20;;;;;;;14.90;6.95;;;;;;;14.38;67.90;100169.75;5088412;28;20058;-75
2021/12/05 11:24:52;;;;;;;12.63;5.78;;;;;;;14.57;66.21;100161.41;5089303;28;20099;-76
2021/12/05 11:27:17;;;;;;;14.70;7.30;;;;;;;14.72;65.54;100165.19;5091752;28;20023;-75
2021/12/05 11:30:00;;;;;;;11.82;6.25;;;;;;;14.85;65.54;100162.91;5091375;28;20016;-76
2021/12/05 11:33:02;;;;;;;14.23;6.35;;;;;;;14.88;64.74;100167.97;5102888;28;20406;-76
2021/12/05 11:35:47;;;;;;;18.00;6.95;;;;;;;14.81;64.00;100161.50;5082738;28;20032;-74
2021/12/05 11:38:21;;;;;;;21.38;6.55;;;;;;;14.69;64.12;100154.69;5091959;28;20051;-75
2021/12/05 11:41:11;;;;;;;18.13;5.95;;;;;;;14.47;64.25;100157.97;5083813;28;20039;-74
2021/12/05 11:43:49;;;;;;;21.55;7.22;;;;;;;14.33;64.80;100155.88;5071122;28;20031;-73
2021/12/05 11:46:36;;;;;;;7.40;6.15;;;;;;;14.18;65.02;100151.03;5070247;28;20071;-75
2021/12/05 11:49:09;;;;;;;24.63;7.32;;;;;;;14.13;65.52;100141.66;5072057;28;20402;-74
2021/12/05 11:51:56;;;;;;;33.65;8.05;;;;;;;14.28;65.44;100147.38;5075610;28;20094;-75
2021/12/05 11:54:40;;;;;;;11.02;5.82;;;;;;;14.29;65.74;100146.34;5075219;28;20091;-74
2021/12/05 11:57:25;;;;;;;29.00;6.95;;;;;;;14.39;65.09;100152.53;5074626;28;20032;-76
2021/12/05 11:59:58;;;;;;;10.98;5.97;;;;;;;14.41;64.76;100148.63;5074692;28;20078;-73
2021/12/05 12:02:33;;;;;;;14.35;6.38;;;;;;;14.40;64.95;100141.53;5074929;28;20112;-75
2021/12/05 12:05:07;;;;;;;10.82;6.47;;;;;;;14.18;65.33;100123.97;5075097;28;20029;-74
2021/12/05 12:07:37;;;;;;;32.83;8.63;;;;;;;14.38;65.31;100150.81;5075558;28;20059;-76
2021/12/05 12:10:15;;;;;;;19.58;8.82;;;;;;;14.42;65.38;100144.09;5076061;28;20024;-76
2021/12/05 12:12:46;;;;;;;21.13;8.65;;;;;;;14.40;65.25;100138.00;5075447;28;20099;-75
2021/12/05 12:15:14;;;;;;;16.88;9.10;;;;;;;14.25;65.23;100142.28;5074865;28;20390;-76
2021/12/05 12:17:40;;;;;;;15.93;6.82;;;;;;;14.18;65.55;100140.22;5058163;28;20462;-80
2021/12/05 12:20:11;;;;;;;12.68;7.32;;;;;;;14.26;66.24;100138.53;5081454;28;20025;-81
2021/12/05 12:22:37;;;;;;;11.38;6.88;;;;;;;13.91;66.01;100086.25;5082423;28;20049;-80
2021/12/05 12:25:08;;;;;;;16.40;8.07;;;;;;;14.04;66.24;100126.41;5100517;28;20067;-81
2021/12/05 12:27:34;;;;;;;17.90;6.30;;;;;;;13.94;67.02;100140.03;5083529;28;20016;-77
2021/12/05 12:30:03;;;;;;;15.60;6.60;;;;;;;13.91;66.76;100121.41;5076721;28;20025;-81
2021/12/05 12:32:42;;;;;;;12.88;5.68;;;;;;;14.08;66.43;100123.22;5090894;28;20020;-81
2021/12/05 12:35:24;;;;;;;25.40;7.93;;;;;;;14.16;66.63;100123.28;5076097;28;20730;-80
2021/12/05 12:38:07;;;;;;;13.30;6.72;;;;;;;14.26;66.81;100125.00;5074817;28;20023;-83
2021/12/05 12:40:39;;;;;;;16.58;7.32;;;;;;;14.16;66.54;100125.97;5070055;28;20025;-83
2021/12/05 12:43:07;;;;;;;26.08;6.45;;;;;;;14.09;66.76;100124.94;5076086;28;20035;-81
2021/12/05 12:45:41;;;;;;;11.90;6.13;;;;;;;14.04;66.90;100115.59;5074800;28;20032;-81
2021/12/05 12:48:16;;;;;;;11.23;6.28;;;;;;;13.86;67.67;100118.34;5075038;28;20030;-77
2021/12/05 12:50:52;;;;;;;11.20;5.78;;;;;;;13.63;68.25;100112.63;5074523;28;20017;-76
2021/12/05 12:53:20;;;;;;;13.40;5.97;;;;;;;13.62;68.33;100118.16;5090168;28;20029;-77
2021/12/05 12:56:09;;;;;;;11.35;7.32;;;;;;;13.54;68.97;100124.38;5074610;28;20020;-80
2021/12/05 12:59:01;;;;;;;28.45;7.22;;;;;;;13.55;69.40;100123.34;5059161;28;20036;-80
2021/12/05 13:04:32;;;;;;;17.30;5.80;;;;;;;13.59;71.25;100122.03;5046029;28;20032;-77
2021/12/05 13:09:57;;;;;;;39.08;8.10;;;;;;;13.44;71.91;100125.44;5074264;28;20029;-78
2021/12/05 13:10:09;;;;;;;14.55;6.18;;;;;;;13.32;72.76;100127.53;5074458;28;20066;-76
2021/12/05 13:12:49;;;;;;;11.60;6.18;;;;;;;13.34;72.94;100132.75;5056309;28;20051;-77
2021/12/05 13:15:20;;;;;;;10.43;5.65;;;;;;;13.41;72.83;100133.84;5074447;28;20028;-79
2021/12/05 13:18:03;;;;;;;16.42;6.20;;;;;;;13.48;72.44;100119.59;5074505;28;20042;-77
2021/12/05 13:20:47;;;;;;;46.67;9.20;;;;;;;13.53;72.24;100140.72;5058442;28;20358;-79
2021/12/05 13:23:18;;;;;;;15.00;8.73;;;;;;;13.66;71.84;100146.59;5073893;28;20128;-76
2021/12/05 13:26:11;;;;;;;26.45;7.88;;;;;;;13.65;71.69;100139.47;5074029;28;20025;-78
2021/12/05 13:28:42;;;;;;;15.38;6.70;;;;;;;13.56;71.74;100146.66;5074239;28;20650;-77
2021/12/05 13:31:26;;;;;;;15.25;7.88;;;;;;;13.45;72.02;100138.81;5073874;28;20040;-78
2021/12/05 13:34:32;;;;;;;13.95;7.25;;;;;;;13.31;72.18;100142.03;5073739;28;20016;-78
2021/12/05 13:37:25;;;;;;;18.50;7.28;;;;;;;13.32;72.52;100141.03;5054180;28;20241;-78
2021/12/05 13:39:52;;;;;;;;;;;;;;;13.19;73.18;100150.50;5055393;28;20466;-77
2021/12/05 13:42:24;;;;;;;13.68;6.90;;;;;;;13.11;73.61;100142.34;5055144;28;20263;-79
2021/12/05 13:44:58;;;;;;;17.70;7.13;;;;;;;13.08;73.48;100143.50;5054714;28;20406;-78
2021/12/05 13:47:33;;;;;;;13.85;7.05;;;;;;;13.02;73.53;100147.63;5054047;28;20458;-79
2021/12/05 13:50:18;;;;;;;32.83;13.88;;;;;;;13.11;73.89;100151.28;5054366;28;20024;-81
2021/12/05 13:52:58;;;;;;;22.15;9.55;;;;;;;13.17;73.68;100156.06;5019460;28;20107;-77
2021/12/05 13:55:39;;;;;;;12.68;7.43;;;;;;;13.21;73.70;100164.72;5054716;28;20278;-83
2021/12/05 13:58:36;;;;;;;15.95;6.70;;;;;;;13.16;73.40;100154.38;5054459;28;20099;-78
2021/12/05 14:01:17;;;;;;;18.10;7.53;;;;;;;13.28;73.16;100163.09;5064327;28;20425;-81
2021/12/05 14:04:00;;;;;;;17.10;8.60;;;;;;;13.31;73.04;100165.47;5073965;28;20103;-78
2021/12/05 14:06:37;;;;;;;54.92;10.38;;;;;;;13.44;72.89;100168.66;5058709;28;20410;-79
2021/12/05 14:09:17;;;;;;;16.85;7.38;;;;;;;13.42;72.95;100157.16;5075074;28;20095;-80
2021/12/05 14:11:55;;;;;;;47.47;12.45;;;;;;;13.32;72.58;100137.47;5074388;28;20032;-77
2021/12/05 14:14:24;;;;;;;17.38;8.70;;;;;;;13.50;72.52;100170.75;5076613;28;20414;-80
2021/12/05 14:16:52;;;;;;;44.25;10.77;;;;;;;13.61;72.27;100162.38;5076848;28;20103;-80
2021/12/05 14:19:21;;;;;;;36.65;10.10;;;;;;;13.61;72.25;100173.19;5056195;28;20122;-77
2021/12/05 14:21:49;;;;;;;18.45;10.48;;;;;;;13.59;71.83;100173.38;5073476;28;20024;-79
2021/12/05 14:24:18;;;;;;;23.85;11.75;;;;;;;13.39;72.28;100152.91;5072915;28;20125;-77
2021/12/05 14:26:47;;;;;;;31.02;11.02;;;;;;;13.55;72.54;100173.81;5072966;28;20028;-78
2021/12/05 14:29:21;;;;;;;17.83;9.70;;;;;;;13.53;72.33;100176.69;5072935;28;20054;-81
2021/12/05 14:31:52;;;;;;;17.80;9.63;;;;;;;13.57;72.33;100182.63;5072967;28;20474;-79
2021/12/05 14:34:20;;;;;;;23.13;10.80;;;;;;;13.60;72.23;100169.69;5072259;28;20039;-79
2021/12/05 14:36:48;;;;;;;21.55;8.57;;;;;;;13.60;71.50;100166.13;5072697;28;20029;-79
2021/12/05 14:39:17;;;;;;;24.63;10.68;;;;;;;13.53;71.26;100165.03;5073049;28;20082;-77
2021/12/05 14:41:45;;;;;;;16.10;9.95;;;;;;;13.60;70.77;100166.97;5073791;28;20028;-79
2021/12/05 14:44:12;;;;;;;41.15;12.63;;;;;;;13.72;70.93;100164.88;5073823;28;20556;-78
2021/12/05 14:47:02;;;;;;;25.48;13.07;;;;;;;13.81;71.10;100174.75;5073680;28;20031;-79
2021/12/05 14:49:31;;;;;;;26.90;12.88;;;;;;;13.86;70.76;100161.59;5073329;28;20056;-79
2021/12/05 14:51:58;;;;;;;26.15;8.65;;;;;;;13.81;70.16;100158.53;5072998;28;20086;-77
2021/12/05 14:54:35;;;;;;;19.42;9.68;;;;;;;13.84;70.30;100166.31;5073015;28;20036;-80
2021/12/05 14:57:17;;;;;;;48.95;14.75;;;;;;;13.89;70.52;100155.88;5085440;28;20424;-80
2021/12/05 14:59:45;;;;;;;26.70;13.30;;;;;;;13.89;70.14;100158.56;5091230;28;20107;-78
2021/12/05 15:02:11;;;;;;;26.55;11.85;;;;;;;13.97;70.36;100164.06;5073049;28;20024;-77
2021/12/05 15:04:42;;;;;;;29.50;11.27;;;;;;;13.99;70.07;100162.03;5071620;28;20490;-78
2021/12/05 15:07:08;;;;;;;29.27;10.38;;;;;;;13.93;69.74;100159.97;5071967;28;20492;-77
2021/12/05 15:09:44;;;;;;;29.33;10.52;;;;;;;14.01;69.54;100165.44;5072816;28;20028;-77
2021/12/05 15:12:21;;;;;;;34.67;10.27;;;;;;;13.96;69.52;100154.25;5072435;28;20028;-79
2021/12/05 15:14:52;;;;;;;36.17;11.60;;;;;;;14.01;69.81;100170.84;5072560;28;20055;-79
2021/12/05 15:17:21;;;;;;;27.42;12.38;;;;;;;13.99;70.10;100159.34;5071888;28;20024;-78
2021/12/05 15:19:53;;;;;;;26.75;10.98;;;;;;;13.99;69.79;100162.03;5071465;28;20110;-79
2021/12/05 15:22:20;;;;;;;21.55;10.77;;;;;;;13.97;69.82;100164.06;5070481;28;20056;-78
2021/12/05 15:25:00;;;;;;;26.02;9.95;;;;;;;13.82;70.12;100153.97;5052056;28;20062;-78
2021/12/05 15:27:30;;;;;;;21.98;10.95;;;;;;;13.94;70.50;100164.34;5070618;28;20087;-78
2021/12/05 15:30:03;;;;;;;46.47;12.88;;;;;;;13.91;70.58;100158.44;5070915;28;20044;-79
2021/12/05 15:32:31;;;;;;;25.85;10.93;;;;;;;13.92;70.49;100165.53;5052942;28;20032;-79
2021/12/05 15:34:59;;;;;;;22.05;10.20;;;;;;;13.83;70.56;100167.31;5071949;28;20115;-79
2021/12/05 15:37:25;;;;;;;22.75;10.57;;;;;;;13.60;70.62;100147.22;5072589;28;20028;-77
2021/12/05 15:39:53;;;;;;;21.15;10.43;;;;;;;13.66;71.35;100170.91;5072847;28;20063;-78
2021/12/05 15:42:30;;;;;;;35.42;11.38;;;;;;;13.66;71.72;100172.75;5072937;28;20031;-79
2021/12/05 15:44:58;;;;;;;38.67;10.82;;;;;;;13.61;72.04;100173.19;5072903;28;20055;-78
2021/12/05 15:47:27;;;;;;;24.98;10.18;;;;;;;13.57;72.55;100155.63;5072891;28;20106;-78
2021/12/05 15:50:14;;;;;;;32.63;14.73;;;;;;;13.64;72.58;100156.69;5054920;28;20119;-77
2021/12/05 15:52:43;;;;;;;40.88;13.48;;;;;;;13.59;72.94;100159.00;5073669;28;20067;-78
2021/12/05 15:55:16;;;;;;;32.03;14.88;;;;;;;13.60;72.88;100160.72;5075966;28;20032;-79
2021/12/05 15:57:46;;;;;;;86.35;16.92;;;;;;;13.65;73.10;100158.38;5073590;28;20031;-78
2021/12/05 16:00:31;;;;;;;49.80;16.42;;;;;;;13.73;73.32;100165.72;5072421;28;20082;-80
2021/12/05 16:03:10;;;;;;;42.00;12.77;;;;;;;13.75;73.14;100163.72;5054661;28;20040;-78
2021/12/05 16:05:38;;;;;;;24.52;12.82;;;;;;;13.76;73.21;100168.94;5071923;28;20055;-78
2021/12/05 16:08:11;;;;;;;39.88;13.82;;;;;;;13.78;73.10;100169.66;5071590;28;20043;-80
2021/12/05 16:10:40;;;;;;;19.70;9.85;;;;;;;13.84;73.01;100174.44;5071777;28;20112;-78
2021/12/05 16:13:33;;;;;;;31.92;11.15;;;;;;;13.80;73.04;100183.84;5053428;28;20033;-78
2021/12/05 16:16:28;;;;;;;29.15;8.63;;;;;;;13.77;73.17;100183.31;5072242;28;20036;-80
2021/12/05 16:19:07;;;;;;;26.35;10.82;;;;;;;13.76;73.17;100182.44;5067137;28;20041;-78
2021/12/05 16:21:34;;;;;;;38.67;10.57;;;;;;;13.79;73.39;100179.44;5072365;28;20032;-78
2021/12/05 16:24:17;;;;;;;48.95;13.48;;;;;;;13.83;73.32;100179.97;5071542;28;20418;-79
2021/12/05 16:26:46;;;;;;;19.83;10.50;;;;;;;13.94;73.62;100193.28;5054049;28;20435;-77
2021/12/05 16:29:16;;;;;;;26.20;13.60;;;;;;;14.00;73.11;100196.19;5071564;28;20024;-80
2021/12/05 16:31:45;;;;;;;40.25;16.90;;;;;;;14.12;72.74;100178.72;5071440;28;20451;-78
2021/12/05 16:34:21;;;;;;;43.75;15.32;;;;;;;14.17;72.72;100175.50;5072033;28;20032;-78
2021/12/05 16:36:58;;;;;;;85.15;28.58;;;;;;;14.18;72.39;100180.78;5074754;28;20105;-77
2021/12/05 16:39:44;;;;;;;86.38;41.33;;;;;;;14.19;72.14;100185.16;5057233;28;20028;-77
2021/12/05 16:42:19;;;;;;;45.83;22.67;;;;;;;14.27;72.14;100192.50;5074896;28;20055;-79
2021/12/05 16:45:03;;;;;;;67.75;24.55;;;;;;;14.30;71.65;100183.22;5075009;28;20029;-79
2021/12/05 16:47:31;;;;;;;54.22;26.13;;;;;;;14.34;71.57;100182.75;5075415;28;20027;-78
2021/12/05 16:49:59;;;;;;;49.70;23.73;;;;;;;14.27;71.46;100173.56;5075099;28;20119;-77
2021/12/05 16:52:31;;;;;;;47.13;20.75;;;;;;;14.36;71.38;100190.72;5074969;28;20135;-79
2021/12/05 16:55:03;;;;;;;42.35;19.45;;;;;;;14.29;71.57;100187.75;5075116;28;20075;-77